createdAt,value
2022-09-15T00:00:08.932Z,20.05
2022-09-15T00:02:35.762Z,19.63
2022-09-15T00:05:03.109Z,19.83
2022-09-15T00:07:31.247Z,19.72
2022-09-15T00:09:58.030Z,19.87
2022-09-15T00:12:25.140Z,19.86
2022-09-15T00:14:51.845Z,19.87
2022-09-15T00:17:18.613Z,19.64
2022-09-15T00:19:45.708Z,19.48
2022-09-15T00:22:12.418Z,19.30
2022-09-15T00:24:39.136Z,19.35
2022-09-15T00:27:05.959Z,19.27
2022-09-15T00:29:32.660Z,19.06
2022-09-15T00:31:59.338Z,18.95
2022-09-15T00:34:26.103Z,18.93
2022-09-15T00:36:52.754Z,18.85
2022-09-15T00:39:19.493Z,18.67
2022-09-15T00:41:46.199Z,18.63
2022-09-15T00:44:18.740Z,18.47
2022-09-15T00:47:04.051Z,18.55
2022-09-15T00:49:38.860Z,18.46
2022-09-15T00:52:10.174Z,18.19
2022-09-15T00:55:05.777Z,18.22
2022-09-15T00:57:47.738Z,18.39
2022-09-15T01:00:18.635Z,18.48
2022-09-15T01:02:47.403Z,18.56
2022-09-15T01:05:17.723Z,18.58
2022-09-15T01:07:56.315Z,18.76
2022-09-15T01:10:31.793Z,18.80
2022-09-15T01:13:06.998Z,18.84
2022-09-15T01:15:42.743Z,18.87
2022-09-15T01:18:18.611Z,18.81
2022-09-15T01:21:09.015Z,18.78
2022-09-15T01:24:00.103Z,18.92
2022-09-15T01:27:09.653Z,19.12
2022-09-15T01:29:55.135Z,19.22
2022-09-15T01:33:05.445Z,19.27
2022-09-15T01:35:56.054Z,19.28
2022-09-15T01:38:51.066Z,19.25
2022-09-15T01:41:37.828Z,19.15
2022-09-15T01:44:12.141Z,19.27
2022-09-15T01:46:48.711Z,19.04
2022-09-15T01:49:23.105Z,19.14
2022-09-15T01:51:52.427Z,18.91
2022-09-15T01:54:39.144Z,19.06
2022-09-15T01:57:05.964Z,18.73
2022-09-15T01:59:34.736Z,18.69
2022-09-15T02:02:10.135Z,18.57
2022-09-15T02:05:03.558Z,18.46
2022-09-15T02:07:57.110Z,18.37
2022-09-15T02:10:34.123Z,18.27
2022-09-15T02:13:11.683Z,18.19
2022-09-15T02:15:47.106Z,17.92
2022-09-15T02:18:17.932Z,17.57
2022-09-15T02:20:57.800Z,17.46
2022-09-15T02:23:36.869Z,17.47
2022-09-15T02:26:10.068Z,17.43
2022-09-15T02:28:39.636Z,17.68
2022-09-15T02:31:11.983Z,17.69
2022-09-15T02:33:49.818Z,17.65
2022-09-15T02:36:20.300Z,17.51
2022-09-15T02:38:54.247Z,17.59
2022-09-15T02:41:21.412Z,17.61
2022-09-15T02:43:49.375Z,17.56
2022-09-15T02:46:20.139Z,17.25
2022-09-15T02:48:47.269Z,17.20
2022-09-15T02:51:14.475Z,17.21
2022-09-15T02:53:41.284Z,17.02
2022-09-15T02:56:07.988Z,16.95
2022-09-15T02:58:35.043Z,16.83
2022-09-15T03:01:04.470Z,16.79
2022-09-15T03:03:35.019Z,16.79
2022-09-15T03:06:16.937Z,16.94
2022-09-15T03:08:43.602Z,17.00
2022-09-15T03:11:12.305Z,17.05
2022-09-15T03:13:40.098Z,17.08
2022-09-15T03:16:11.593Z,17.23
2022-09-15T03:18:39.575Z,17.16
2022-09-15T03:21:09.117Z,17.11
2022-09-15T03:23:36.025Z,16.99
2022-09-15T03:26:03.930Z,17.10
2022-09-15T03:28:30.691Z,16.96
2022-09-15T03:30:57.649Z,17.13
2022-09-15T03:33:24.911Z,17.11
2022-09-15T03:35:52.964Z,17.14
2022-09-15T03:38:20.081Z,17.30
2022-09-15T03:41:08.526Z,17.31
2022-09-15T03:43:36.334Z,17.26
2022-09-15T03:46:05.715Z,17.26
2022-09-15T03:48:35.623Z,17.07
2022-09-15T03:51:05.766Z,17.14
2022-09-15T03:53:34.454Z,16.95
2022-09-15T03:56:22.794Z,17.01
2022-09-15T03:58:49.656Z,16.95
2022-09-15T04:01:17.397Z,16.82
2022-09-15T04:03:48.820Z,16.98
2022-09-15T04:06:19.481Z,17.10
2022-09-15T04:08:46.251Z,17.03
2022-09-15T04:11:13.983Z,17.16
2022-09-15T04:13:42.406Z,17.21
2022-09-15T04:16:12.862Z,17.12
2022-09-15T04:18:39.977Z,17.29
2022-09-15T04:21:09.425Z,17.32
2022-09-15T04:23:36.299Z,17.28
2022-09-15T04:26:06.045Z,17.33
2022-09-15T04:28:35.258Z,17.46
2022-09-15T04:31:13.401Z,17.50
2022-09-15T04:33:42.071Z,17.63
2022-09-15T04:36:11.901Z,17.62
2022-09-15T04:38:38.995Z,17.64
2022-09-15T04:41:06.541Z,17.75
2022-09-15T04:43:33.851Z,17.74
2022-09-15T04:46:00.896Z,17.63
2022-09-15T04:48:28.428Z,17.66
2022-09-15T04:50:55.127Z,17.58
2022-09-15T04:53:23.653Z,17.44
2022-09-15T04:55:50.304Z,17.41
2022-09-15T04:58:16.946Z,17.40
2022-09-15T05:00:43.756Z,17.56
2022-09-15T05:03:11.679Z,17.56
2022-09-15T05:05:39.055Z,17.85
2022-09-15T05:08:06.869Z,17.91
2022-09-15T05:10:38.259Z,18.07
2022-09-15T05:13:04.886Z,18.12
2022-09-15T05:15:31.616Z,18.00
2022-09-15T05:17:58.598Z,18.13
2022-09-15T05:20:25.936Z,18.31
2022-09-15T05:22:52.836Z,18.52
2022-09-15T05:25:19.535Z,18.58
2022-09-15T05:27:46.336Z,18.77
2022-09-15T05:32:59.732Z,18.44
2022-09-15T05:35:26.661Z,18.96
2022-09-15T05:37:53.323Z,19.34
2022-09-15T05:40:21.895Z,19.46
2022-09-15T05:42:48.660Z,18.94
2022-09-15T05:45:15.624Z,18.83
2022-09-15T05:47:42.371Z,19.01
2022-09-15T05:50:09.629Z,19.44
2022-09-15T05:52:36.278Z,19.24
2022-09-15T05:55:03.028Z,19.32
2022-09-15T05:57:29.694Z,19.71
2022-09-15T05:59:56.323Z,19.95
2022-09-15T06:02:23.089Z,20.14
2022-09-15T06:04:49.904Z,19.91
2022-09-15T06:07:16.832Z,20.03
2022-09-15T06:09:44.076Z,20.43
2022-09-15T06:12:10.910Z,20.28
2022-09-15T06:14:37.548Z,20.27
2022-09-15T06:17:04.230Z,20.45
2022-09-15T06:19:31.257Z,20.81
2022-09-15T06:21:57.913Z,21.28
2022-09-15T06:24:24.650Z,21.33
2022-09-15T06:26:51.374Z,21.48
2022-09-15T06:29:18.122Z,21.22
2022-09-15T06:31:44.908Z,21.44
2022-09-15T06:34:11.922Z,22.05
2022-09-15T06:36:39.201Z,22.42
2022-09-15T06:39:05.931Z,22.94
2022-09-15T06:41:58.460Z,22.89
2022-09-15T06:44:19.920Z,22.26
2022-09-15T06:46:46.745Z,22.68
2022-09-15T06:49:14.119Z,22.56
2022-09-15T06:51:40.788Z,23.25
2022-09-15T06:54:07.625Z,23.21
2022-09-15T06:56:37.844Z,23.78
2022-09-15T06:59:05.162Z,23.90
2022-09-15T07:01:33.169Z,23.37
2022-09-15T07:04:01.527Z,23.42
2022-09-15T07:06:30.885Z,23.69
2022-09-15T07:08:58.700Z,24.10
2022-09-15T07:11:25.724Z,24.31
2022-09-15T07:13:52.596Z,24.62
2022-09-15T07:16:20.845Z,24.59
2022-09-15T07:18:48.576Z,24.95
2022-09-15T07:21:20.508Z,25.38
2022-09-15T07:23:48.297Z,25.06
2022-09-15T07:26:26.404Z,25.74
2022-09-15T07:29:01.094Z,26.05
2022-09-15T07:31:31.429Z,25.88
2022-09-15T07:34:01.731Z,25.75
2022-09-15T07:36:29.506Z,26.35
2022-09-15T07:38:56.387Z,25.83
2022-09-15T07:41:26.497Z,26.07
2022-09-15T07:43:55.515Z,26.28
2022-09-15T07:46:23.844Z,26.34
2022-09-15T07:48:53.236Z,27.03
2022-09-15T07:51:20.223Z,26.89
2022-09-15T07:53:48.259Z,27.31
2022-09-15T07:56:18.430Z,26.74
2022-09-15T07:58:45.939Z,27.11
2022-09-15T08:01:14.774Z,27.66
2022-09-15T08:03:43.076Z,28.31
2022-09-15T08:06:10.221Z,28.05
2022-09-15T08:08:41.100Z,28.56
2022-09-15T08:11:09.600Z,28.69
2022-09-15T08:13:37.152Z,28.36
2022-09-15T08:16:09.777Z,28.52
2022-09-15T08:18:36.943Z,28.47
2022-09-15T08:21:08.195Z,28.50
2022-09-15T08:23:35.130Z,28.49
2022-09-15T08:26:01.956Z,28.03
2022-09-15T08:28:28.645Z,29.07
2022-09-15T08:31:04.607Z,29.38
2022-09-15T08:33:31.890Z,29.42
2022-09-15T08:36:08.378Z,29.75
2022-09-15T08:38:35.177Z,29.03
2022-09-15T08:41:14.676Z,28.97
2022-09-15T08:43:48.015Z,29.19
2022-09-15T08:46:21.087Z,29.25
2022-09-15T08:49:23.485Z,29.66
2022-09-15T08:51:56.164Z,29.99
2022-09-15T08:54:29.389Z,29.59
2022-09-15T08:56:57.609Z,29.46
2022-09-15T08:59:27.632Z,30.15
2022-09-15T09:01:57.452Z,30.78
2022-09-15T09:04:59.424Z,30.74
2022-09-15T09:07:53.016Z,30.38
2022-09-15T09:10:25.365Z,30.98
2022-09-15T09:13:07.112Z,30.94
2022-09-15T09:15:50.244Z,31.52
2022-09-15T09:18:38.415Z,31.13
2022-09-15T09:21:26.833Z,30.93
2022-09-15T09:24:05.576Z,31.27
2022-09-15T09:26:36.608Z,31.40
2022-09-15T09:29:19.019Z,31.75
2022-09-15T09:31:52.981Z,31.69
2022-09-15T09:34:47.247Z,31.79
2022-09-15T09:37:16.744Z,31.43
2022-09-15T09:39:43.411Z,31.59
2022-09-15T09:42:18.398Z,31.56
2022-09-15T09:44:46.862Z,31.81
2022-09-15T09:47:14.179Z,32.34
2022-09-15T09:49:47.134Z,32.60
2022-09-15T09:52:16.188Z,32.71
2022-09-15T09:54:46.558Z,32.90
2022-09-15T09:57:13.146Z,32.90
2022-09-15T09:59:45.697Z,33.37
2022-09-15T10:02:12.274Z,33.53
2022-09-15T10:04:40.822Z,33.24
2022-09-15T10:07:08.832Z,33.53
2022-09-15T10:09:36.891Z,33.48
2022-09-15T10:12:05.610Z,33.02
2022-09-15T10:14:42.325Z,33.00
2022-09-15T10:17:18.960Z,33.44
2022-09-15T10:19:57.854Z,33.19
2022-09-15T10:22:33.714Z,33.48
2022-09-15T10:25:02.751Z,33.81
2022-09-15T10:27:32.873Z,34.07
2022-09-15T10:30:20.059Z,34.55
2022-09-15T10:32:47.476Z,33.63
2022-09-15T10:35:19.156Z,33.66
2022-09-15T10:37:45.835Z,33.45
2022-09-15T10:40:39.292Z,33.46
2022-09-15T10:43:22.606Z,33.73
2022-09-15T10:45:58.648Z,33.88
2022-09-15T10:48:40.021Z,34.39
2022-09-15T10:51:09.684Z,34.27
2022-09-15T10:53:42.457Z,34.22
2022-09-15T10:56:23.293Z,34.28
2022-09-15T10:59:03.609Z,34.25
2022-09-15T11:01:50.028Z,34.38
2022-09-15T11:04:38.834Z,35.00
2022-09-15T11:07:32.822Z,35.20
2022-09-15T11:10:28.724Z,35.10
2022-09-15T11:13:23.222Z,35.61
2022-09-15T11:16:07.587Z,35.88
2022-09-15T11:19:01.892Z,36.26
2022-09-15T11:22:13.810Z,35.77
2022-09-15T11:24:43.266Z,35.39
2022-09-15T11:27:28.246Z,35.05
2022-09-15T11:30:06.520Z,35.49
2022-09-15T11:32:42.698Z,35.58
2022-09-15T11:35:34.648Z,35.59
2022-09-15T11:38:35.822Z,35.40
2022-09-15T11:41:20.199Z,35.65
2022-09-15T11:44:07.413Z,35.52
2022-09-15T11:46:59.904Z,34.75
2022-09-15T11:49:55.333Z,35.35
2022-09-15T11:52:22.751Z,35.66
2022-09-15T11:54:54.181Z,35.54
2022-09-15T11:57:28.423Z,35.81
2022-09-15T12:00:03.870Z,36.04
2022-09-15T12:02:40.289Z,36.57
2022-09-15T12:05:35.154Z,35.63
2022-09-15T12:08:23.587Z,35.56
2022-09-15T12:10:53.794Z,35.62
2022-09-15T12:13:24.242Z,36.21
2022-09-15T12:15:52.274Z,36.15
2022-09-15T12:18:39.885Z,35.98
2022-09-15T12:21:30.556Z,35.97
2022-09-15T12:24:22.243Z,36.54
2022-09-15T12:26:49.637Z,36.09
2022-09-15T12:29:22.481Z,36.10
2022-09-15T12:31:49.235Z,36.32
2022-09-15T12:34:25.088Z,36.44
2022-09-15T12:37:06.867Z,36.31
2022-09-15T12:39:46.788Z,36.14
2022-09-15T12:42:18.717Z,35.99
2022-09-15T12:44:59.842Z,36.22
2022-09-15T12:47:35.576Z,36.48
2022-09-15T12:50:27.483Z,37.17
2022-09-15T12:53:01.196Z,37.16
2022-09-15T12:55:36.006Z,37.06
2022-09-15T12:58:16.126Z,37.46
2022-09-15T13:01:14.314Z,37.98
2022-09-15T13:06:26.073Z,37.66
2022-09-15T13:09:01.781Z,37.73
2022-09-15T13:11:34.970Z,38.34
2022-09-15T13:14:06.932Z,38.37
2022-09-15T13:16:48.828Z,38.31
2022-09-15T13:19:44.298Z,37.57
2022-09-15T13:22:11.132Z,38.08
2022-09-15T13:24:44.591Z,38.11
2022-09-15T13:27:13.485Z,38.08
2022-09-15T13:29:54.878Z,37.89
2022-09-15T13:32:36.698Z,38.34
2022-09-15T13:35:20.521Z,38.19
2022-09-15T13:38:11.431Z,38.93
2022-09-15T13:40:51.242Z,38.10
2022-09-15T13:43:45.635Z,37.56
2022-09-15T13:46:21.704Z,37.32
2022-09-15T13:49:19.490Z,36.18
2022-09-15T13:51:59.836Z,35.66
2022-09-15T13:54:26.886Z,35.58
2022-09-15T13:56:53.819Z,35.65
2022-09-15T13:59:28.646Z,35.73
2022-09-15T14:01:56.964Z,35.87
2022-09-15T14:04:31.032Z,35.86
2022-09-15T14:07:02.040Z,35.84
2022-09-15T14:09:31.392Z,35.76
2022-09-15T14:12:03.343Z,35.50
2022-09-15T14:14:39.033Z,35.46
2022-09-15T14:17:06.186Z,35.24
2022-09-15T14:19:38.556Z,35.21
2022-09-15T14:22:34.940Z,35.25
2022-09-15T14:25:15.144Z,35.28
2022-09-15T14:27:45.678Z,35.12
2022-09-15T14:30:19.681Z,35.00
2022-09-15T14:32:49.890Z,34.58
2022-09-15T14:35:20.460Z,34.29
2022-09-15T14:37:55.231Z,33.99
2022-09-15T14:40:29.754Z,33.99
2022-09-15T14:42:57.122Z,33.63
2022-09-15T14:45:57.995Z,33.56
2022-09-15T14:48:28.355Z,33.55
2022-09-15T14:51:05.034Z,33.41
2022-09-15T14:53:35.671Z,33.28
2022-09-15T14:56:11.863Z,32.90
2022-09-15T14:59:01.934Z,32.98
2022-09-15T15:01:36.746Z,32.90
2022-09-15T15:04:20.158Z,32.79
2022-09-15T15:07:04.333Z,32.78
2022-09-15T15:09:39.945Z,32.42
2022-09-15T15:12:16.481Z,32.37
2022-09-15T15:14:43.515Z,32.30
2022-09-15T15:17:27.461Z,32.29
2022-09-15T15:20:06.407Z,32.29
2022-09-15T15:22:33.264Z,32.21
2022-09-15T15:25:00.283Z,32.33
2022-09-15T15:27:32.740Z,32.28
2022-09-15T15:30:30.468Z,32.31
2022-09-15T15:33:24.368Z,32.34
2022-09-15T15:36:03.109Z,32.31
2022-09-15T15:38:34.539Z,32.13
2022-09-15T15:41:03.765Z,32.23
2022-09-15T15:43:30.618Z,32.20
2022-09-15T15:46:03.263Z,32.16
2022-09-15T15:48:38.175Z,31.90
2022-09-15T15:51:07.181Z,31.65
2022-09-15T15:53:34.519Z,31.63
2022-09-15T15:56:01.438Z,31.56
2022-09-15T15:58:28.239Z,31.46
2022-09-15T16:00:56.872Z,31.36
2022-09-15T16:03:24.941Z,31.31
2022-09-15T16:05:54.796Z,31.17
2022-09-15T16:08:31.892Z,31.15
2022-09-15T16:11:01.648Z,30.92
2022-09-15T16:13:29.088Z,30.90
2022-09-15T16:15:57.991Z,30.85
2022-09-15T16:18:24.933Z,30.80
2022-09-15T16:20:52.131Z,30.62
2022-09-15T16:23:22.979Z,30.56
2022-09-15T16:25:53.608Z,30.41
2022-09-15T16:28:20.629Z,30.25
2022-09-15T16:30:47.448Z,30.32
2022-09-15T16:33:15.940Z,30.28
2022-09-15T16:35:55.803Z,30.12
2022-09-15T16:38:25.627Z,30.08
2022-09-15T16:40:52.566Z,29.85
2022-09-15T16:43:22.739Z,29.86
2022-09-15T16:45:51.452Z,29.78
2022-09-15T16:48:18.722Z,29.65
2022-09-15T16:51:09.041Z,29.69
2022-09-15T16:53:33.768Z,29.61
2022-09-15T16:56:00.576Z,29.46
2022-09-15T16:58:27.832Z,29.46
2022-09-15T17:00:54.879Z,29.42
2022-09-15T17:03:24.149Z,29.19
2022-09-15T17:05:53.478Z,29.00
2022-09-15T17:08:23.987Z,28.77
2022-09-15T17:10:53.214Z,28.77
2022-09-15T17:13:26.445Z,28.84
2022-09-15T17:15:56.629Z,28.68
2022-09-15T17:18:23.718Z,28.62
2022-09-15T17:20:52.155Z,28.58
2022-09-15T17:23:24.746Z,28.53
2022-09-15T17:25:53.206Z,28.36
2022-09-15T17:28:22.609Z,28.33
2022-09-15T17:30:52.235Z,28.16
2022-09-15T17:33:21.018Z,28.03
2022-09-15T17:35:48.721Z,28.00
2022-09-15T17:38:16.525Z,28.00
2022-09-15T17:40:43.250Z,27.79
2022-09-15T17:43:21.144Z,27.80
2022-09-15T17:45:49.513Z,27.82
2022-09-15T17:48:16.916Z,27.78
2022-09-15T17:50:46.384Z,27.71
2022-09-15T17:53:14.220Z,27.68
2022-09-15T17:55:42.909Z,27.53
2022-09-15T17:58:10.426Z,27.64
2022-09-15T18:00:39.761Z,27.61
2022-09-15T18:03:34.829Z,27.53
2022-09-15T18:06:07.430Z,27.43
2022-09-15T18:08:36.108Z,27.34
2022-09-15T18:11:04.006Z,27.37
2022-09-15T18:13:31.340Z,27.21
2022-09-15T18:16:02.964Z,27.17
2022-09-15T18:18:30.443Z,27.23
2022-09-15T18:20:58.598Z,27.24
2022-09-15T18:23:28.571Z,27.07
2022-09-15T18:25:55.587Z,26.92
2022-09-15T18:28:22.455Z,26.99
2022-09-15T18:30:50.433Z,26.90
2022-09-15T18:33:21.936Z,26.92
2022-09-15T18:35:50.798Z,26.96
2022-09-15T18:38:18.937Z,26.85
2022-09-15T18:40:47.724Z,26.78
2022-09-15T18:43:14.425Z,26.78
2022-09-15T18:45:42.661Z,26.61
2022-09-15T18:48:12.861Z,26.52
2022-09-15T18:50:41.748Z,26.38
2022-09-15T18:53:08.659Z,26.32
2022-09-15T18:55:35.434Z,26.03
2022-09-15T18:58:02.791Z,26.38
2022-09-15T19:00:29.914Z,26.29
2022-09-15T19:02:58.453Z,26.25
2022-09-15T19:05:27.017Z,26.17
2022-09-15T19:07:54.048Z,26.10
2022-09-15T19:10:21.284Z,26.06
2022-09-15T19:12:47.954Z,26.09
2022-09-15T19:15:15.424Z,26.03
2022-09-15T19:17:43.315Z,25.94
2022-09-15T19:20:14.804Z,25.70
2022-09-15T19:22:42.352Z,25.73
2022-09-15T19:25:11.049Z,25.77
2022-09-15T19:27:38.895Z,25.56
2022-09-15T19:30:07.368Z,25.39
2022-09-15T19:32:34.250Z,25.19
2022-09-15T19:35:00.903Z,25.26
2022-09-15T19:37:27.667Z,25.17
2022-09-15T19:39:54.941Z,24.98
2022-09-15T19:42:21.686Z,25.04
2022-09-15T19:44:49.532Z,24.77
2022-09-15T19:47:16.303Z,24.98
2022-09-15T19:49:43.142Z,24.88
2022-09-15T19:52:09.879Z,24.89
2022-09-15T19:54:36.791Z,24.86
2022-09-15T19:57:04.406Z,24.75
2022-09-15T19:59:32.112Z,24.50
2022-09-15T20:02:00.865Z,24.53
2022-09-15T20:04:29.158Z,24.59
2022-09-15T20:06:55.875Z,24.54
2022-09-15T20:09:24.118Z,24.64
2022-09-15T20:11:51.203Z,24.60
2022-09-15T20:14:17.923Z,24.66
2022-09-15T20:16:44.678Z,24.61
2022-09-15T20:19:11.795Z,24.70
2022-09-15T20:21:55.281Z,24.70
2022-09-15T20:24:23.915Z,24.70
2022-09-15T20:26:51.041Z,24.59
2022-09-15T20:29:18.011Z,24.61
2022-09-15T20:31:45.041Z,24.62
2022-09-15T20:34:11.838Z,24.39
2022-09-15T20:36:39.382Z,24.50
2022-09-15T20:39:10.566Z,24.24
2022-09-15T20:41:37.876Z,24.61
2022-09-15T20:44:06.261Z,24.28
2022-09-15T20:46:33.665Z,24.19
2022-09-15T20:49:01.579Z,24.34
2022-09-15T20:51:31.740Z,24.26
2022-09-15T20:54:00.151Z,24.21
2022-09-15T20:56:29.154Z,24.11
2022-09-15T20:58:58.556Z,24.11
2022-09-15T21:01:32.819Z,24.23
2022-09-15T21:03:59.895Z,24.11
2022-09-15T21:06:28.087Z,23.96
2022-09-15T21:08:56.848Z,23.92
2022-09-15T21:11:25.164Z,23.88
2022-09-15T21:13:52.349Z,23.71
2022-09-15T21:16:21.493Z,23.64
2022-09-15T21:18:50.255Z,23.68
2022-09-15T21:21:18.096Z,23.65
2022-09-15T21:23:47.293Z,23.54
2022-09-15T21:26:17.415Z,23.60
2022-09-15T21:28:45.180Z,23.56
2022-09-15T21:31:19.105Z,23.61
2022-09-15T21:33:47.895Z,23.49
2022-09-15T21:36:26.206Z,23.45
2022-09-15T21:38:54.778Z,23.43
2022-09-15T21:41:23.272Z,23.31
2022-09-15T21:43:59.177Z,23.48
2022-09-15T21:46:28.127Z,23.43
2022-09-15T21:48:57.593Z,23.25
2022-09-15T21:51:26.223Z,23.06
2022-09-15T21:53:54.676Z,23.05
2022-09-15T21:56:21.996Z,22.99
2022-09-15T21:58:48.763Z,22.92
2022-09-15T22:01:17.032Z,22.94
2022-09-15T22:03:43.860Z,23.02
2022-09-15T22:06:12.204Z,23.00
2022-09-15T22:08:40.020Z,22.78
2022-09-15T22:11:07.945Z,22.68
2022-09-15T22:13:37.773Z,22.79
2022-09-15T22:16:13.950Z,22.49
2022-09-15T22:18:41.594Z,22.94
2022-09-15T22:21:19.675Z,22.94
2022-09-15T22:23:48.261Z,22.77
2022-09-15T22:26:28.994Z,22.61
2022-09-15T22:28:56.603Z,22.58
2022-09-15T22:31:24.631Z,22.65
2022-09-15T22:33:51.895Z,22.63
2022-09-15T22:36:27.949Z,22.52
2022-09-15T22:38:56.414Z,22.61
2022-09-15T22:41:25.983Z,22.60
2022-09-15T22:43:52.970Z,22.62
2022-09-15T22:46:20.986Z,22.57
2022-09-15T22:48:47.922Z,22.48
2022-09-15T22:51:15.538Z,22.45
2022-09-15T22:53:42.448Z,22.26
2022-09-15T22:56:14.129Z,22.30
2022-09-15T22:58:43.930Z,22.33
2022-09-15T23:01:16.391Z,22.30
2022-09-15T23:03:44.060Z,22.27
2022-09-15T23:06:10.957Z,22.28
2022-09-15T23:08:37.875Z,22.07
2022-09-15T23:11:07.687Z,22.17
2022-09-15T23:13:34.817Z,22.07
2022-09-15T23:16:02.262Z,22.13
2022-09-15T23:18:29.539Z,22.17
2022-09-15T23:20:58.485Z,22.15
2022-09-15T23:23:26.075Z,22.19
2022-09-15T23:25:53.099Z,22.11
2022-09-15T23:28:20.290Z,21.93
2022-09-15T23:30:51.728Z,22.12
2022-09-15T23:33:18.701Z,21.92
2022-09-15T23:35:45.882Z,21.79
2022-09-15T23:38:13.120Z,21.86
2022-09-15T23:40:43.910Z,21.67
2022-09-15T23:43:11.440Z,21.59
2022-09-15T23:45:38.674Z,21.73
2022-09-15T23:48:06.767Z,21.82
2022-09-15T23:50:33.706Z,21.67
2022-09-15T23:53:00.548Z,21.74
2022-09-15T23:55:27.537Z,21.74
2022-09-15T23:57:54.542Z,21.64
